Time;durP1;ratioP1;P1;durP2;ratioP2;P2;SDS_P1;SDS_P2;PMS_P1;PMS_P2;Temp;Humidity;BMP_temperature;BMP_pressure;BME280_temperature;BME280_humidity;BME280_pressure;Samples;Min_cycle;Max_cycle;Signal;HPM_P1;HPM_P2
2021/12/23 00:00:13;;;;;;;17.85;8.23;;;;;;;-143.84;62.13;45281.38;5113244;28;20193;-74
2021/12/23 00:02:40;;;;;;;12.85;8.25;;;;;;;-143.84;62.69;45252.81;5095051;28;20655;-74
2021/12/23 00:05:09;;;;;;;19.10;8.93;;;;;;;-143.84;62.98;45287.09;5113219;28;20197;-73
2021/12/23 00:07:37;;;;;;;11.07;7.25;;;;;;;-143.84;63.23;45281.38;5113376;28;20658;-74
2021/12/23 00:10:07;;;;;;;16.45;8.18;;;;;;;-143.84;63.36;45264.25;5113676;28;20522;-74
2021/12/23 00:12:37;;;;;;;12.27;8.15;;;;;;;-143.84;63.80;45269.97;5113193;28;20197;-74
2021/12/23 00:15:16;;;;;;;13.75;7.47;;;;;;;-143.84;64.52;45296.63;5113195;28;20198;-73
2021/12/23 00:18:02;;;;;;;16.33;9.00;;;;;;;-143.84;64.60;45266.16;5113237;28;20197;-74
2021/12/23 00:23:27;;;;;;;16.88;8.73;;;;;;;-143.84;65.28;45277.56;5113352;28;20266;-74
2021/12/23 00:25:58;;;;;;;13.50;8.68;;;;;;;-143.84;65.56;45252.81;5113145;28;20193;-74
2021/12/23 00:28:26;;;;;;;13.60;9.77;;;;;;;-143.84;66.58;45277.56;5113052;28;20256;-74
2021/12/23 00:30:54;;;;;;;15.60;9.32;;;;;;;-143.84;67.14;45254.72;5113115;28;20581;-74
2021/12/23 00:33:23;;;;;;;15.80;8.88;;;;;;;-143.84;67.61;45294.72;5113030;28;20201;-74
2021/12/23 00:35:53;;;;;;;17.73;10.32;;;;;;;-143.84;67.89;45308.03;5113033;28;20197;-74
2021/12/23 00:38:24;;;;;;;19.40;10.07;;;;;;;-143.84;68.68;45309.94;5112748;28;20221;-74
2021/12/23 00:40:53;;;;;;;20.45;11.68;;;;;;;-143.84;69.05;45283.28;5112765;28;20201;-74
2021/12/23 00:43:21;;;;;;;15.25;9.93;;;;;;;-143.84;69.10;45309.94;5112978;28;20189;-74
2021/12/23 00:45:49;;;;;;;25.00;11.70;;;;;;;-143.84;69.18;45325.19;5112586;28;20197;-74
2021/12/23 00:48:18;;;;;;;19.63;10.35;;;;;;;-143.84;69.47;45262.34;5112556;28;20675;-74
2021/12/23 00:50:46;;;;;;;21.50;10.43;;;;;;;-143.84;69.62;45300.44;5112620;28;20591;-74
2021/12/23 00:53:17;;;;;;;22.25;11.00;;;;;;;-143.84;69.99;45281.38;5112791;28;20642;-74
2021/12/23 00:55:47;;;;;;;21.75;12.10;;;;;;;-143.84;70.00;45279.47;5112805;28;20647;-74
2021/12/23 00:58:14;;;;;;;18.48;11.25;;;;;;;-143.84;69.87;45283.28;5112623;28;20202;-74
2021/12/23 01:00:41;;;;;;;23.10;12.75;;;;;;;-143.84;69.99;45300.44;5112502;28;20651;-74
2021/12/23 01:03:09;;;;;;;20.98;12.13;;;;;;;-143.84;69.58;45289.00;5112323;28;20575;-74
2021/12/23 01:05:38;;;;;;;17.25;11.20;;;;;;;-143.84;69.43;45268.06;5112352;28;20197;-74
2021/12/23 01:08:06;;;;;;;16.90;10.55;;;;;;;-143.84;69.36;45300.44;5111894;28;20340;-74
2021/12/23 01:10:35;;;;;;;19.33;12.00;;;;;;;-143.84;69.24;45300.44;5112253;28;20193;-74
2021/12/23 01:13:04;;;;;;;17.90;11.03;;;;;;;-143.84;69.04;45252.81;5111790;28;20250;-74
2021/12/23 01:15:59;;;;;;;19.63;11.30;;;;;;;-143.84;69.37;45268.06;5111834;28;20499;-74
2021/12/23 01:18:30;;;;;;;17.55;10.73;;;;;;;-143.84;69.52;45260.44;5112723;28;20538;-74
2021/12/23 01:21:16;;;;;;;18.87;11.40;;;;;;;-143.84;69.10;45302.34;5112231;28;20216;-74
2021/12/23 01:23:46;;;;;;;20.27;11.65;;;;;;;-143.84;70.17;45277.56;5111722;28;20491;-74
2021/12/23 01:26:18;;;;;;;15.75;10.77;;;;;;;-143.84;70.14;45254.72;5111837;28;20197;-74
2021/12/23 01:28:47;;;;;;;19.15;11.73;;;;;;;-143.84;70.94;45306.13;5111737;28;20225;-74
2021/12/23 01:31:14;;;;;;;20.27;11.80;;;;;;;-143.84;71.61;45290.91;5111840;28;20686;-74
2021/12/23 01:33:41;;;;;;;23.67;13.25;;;;;;;-143.84;72.13;45252.81;5111703;28;20454;-74
2021/12/23 01:36:10;;;;;;;20.13;12.60;;;;;;;-143.84;72.75;45298.53;5111563;28;20230;-74
2021/12/23 01:38:38;;;;;;;28.17;12.32;;;;;;;-143.84;72.73;45254.72;5111637;28;20269;-74
2021/12/23 01:41:06;;;;;;;21.90;12.80;;;;;;;-143.84;73.04;45254.72;5111548;28;20204;-74
2021/12/23 01:43:33;;;;;;;21.70;13.13;;;;;;;-143.84;73.14;45273.78;5111714;28;20435;-74
2021/12/23 01:46:00;;;;;;;22.42;12.85;;;;;;;-143.84;72.81;45298.53;5111434;28;20434;-74
2021/12/23 01:48:28;;;;;;;20.40;12.55;;;;;;;-143.84;72.49;45273.78;5111176;28;20266;-74
2021/12/23 01:50:55;;;;;;;22.53;13.67;;;;;;;-143.84;72.25;45309.94;5111622;28;20197;-74
2021/12/23 01:53:24;;;;;;;21.20;13.00;;;;;;;-143.84;72.04;45283.28;5111255;28;20439;-74
2021/12/23 01:55:51;;;;;;;26.40;13.70;;;;;;;-143.84;72.02;45273.78;5111067;28;20447;-74
2021/12/23 01:58:19;;;;;;;22.15;12.80;;;;;;;-143.84;71.87;45308.03;5111076;28;20201;-74
2021/12/23 02:00:50;;;;;;;24.52;13.93;;;;;;;-143.84;72.00;45296.63;5111590;28;20193;-74
2021/12/23 02:03:17;;;;;;;19.23;11.82;;;;;;;-143.84;72.37;45306.13;5111403;28;20684;-74
2021/12/23 02:05:44;;;;;;;19.47;13.40;;;;;;;-143.84;72.66;45285.19;5111532;28;20198;-74
2021/12/23 02:08:12;;;;;;;21.80;13.70;;;;;;;-143.84;72.59;45268.06;5111572;28;20478;-74
2021/12/23 02:10:42;;;;;;;21.92;13.60;;;;;;;-143.84;72.48;45275.66;5111222;28;20235;-74
2021/12/23 02:13:10;;;;;;;26.02;13.82;;;;;;;-143.84;72.59;45269.97;5111016;28;20708;-74
2021/12/23 02:15:37;;;;;;;22.63;13.93;;;;;;;-143.84;72.62;45290.91;5110779;28;20204;-74
2021/12/23 02:18:04;;;;;;;22.00;12.85;;;;;;;-143.84;72.31;45296.63;5110232;28;20262;-74
2021/12/23 02:20:39;;;;;;;22.02;13.15;;;;;;;-143.84;72.33;45273.78;5110713;28;20200;-74
2021/12/23 02:23:09;;;;;;;26.00;14.13;;;;;;;-143.84;72.56;45258.53;5110188;28;20203;-73
2021/12/23 02:25:37;;;;;;;36.85;15.00;;;;;;;-143.84;72.65;45279.47;5110538;28;20203;-74
2021/12/23 02:28:07;;;;;;;21.83;12.85;;;;;;;-143.84;73.03;45277.56;5110853;28;20193;-74
2021/12/23 02:30:37;;;;;;;25.38;14.98;;;;;;;-143.84;72.97;45260.44;5110943;28;20658;-74
2021/12/23 02:33:05;;;;;;;26.42;14.55;;;;;;;-143.84;73.89;45245.19;5110880;28;20254;-74
2021/12/23 02:35:34;;;;;;;23.80;14.48;;;;;;;-143.84;74.56;45311.84;5110745;28;20209;-74
2021/12/23 02:38:02;;;;;;;26.30;15.43;;;;;;;-143.84;75.41;45266.16;5111081;28;20213;-74
2021/12/23 02:40:33;;;;;;;32.42;15.18;;;;;;;-143.84;75.97;45239.50;5110630;28;20201;-74
2021/12/23 02:43:09;;;;;;;31.45;14.57;;;;;;;-143.84;76.77;45294.72;5110676;28;20193;-74
2021/12/23 02:45:37;;;;;;;29.67;15.60;;;;;;;-143.84;77.13;45281.38;5110584;28;20919;-74
2021/12/23 02:48:04;;;;;;;26.95;15.98;;;;;;;-143.84;77.17;45273.78;5110630;28;20197;-74
2021/12/23 02:50:33;;;;;;;32.67;15.45;;;;;;;-143.84;77.43;45289.00;5110081;28;20615;-74
2021/12/23 02:53:00;;;;;;;23.90;13.25;;;;;;;-143.84;77.13;45289.00;5110134;28;20193;-74
2021/12/23 02:55:28;;;;;;;35.70;14.35;;;;;;;-143.84;76.97;45260.44;5110393;28;20728;-74
2021/12/23 02:57:55;;;;;;;28.90;15.32;;;;;;;-143.84;76.50;45281.38;5092033;28;20197;-74
2021/12/23 03:00:22;;;;;;;28.38;15.02;;;;;;;-143.84;76.35;45279.47;5110192;28;20208;-74
2021/12/23 03:02:49;;;;;;;26.55;14.52;;;;;;;-143.84;76.25;45296.63;5110385;28;20208;-74
2021/12/23 03:05:16;;;;;;;23.73;13.88;;;;;;;-143.84;75.67;45258.53;5110455;28;20197;-74
2021/12/23 03:07:45;;;;;;;25.05;13.63;;;;;;;-143.84;75.41;45290.91;5110361;28;20565;-74
2021/12/23 03:10:12;;;;;;;24.90;15.13;;;;;;;-143.84;75.02;45279.47;5109995;28;20608;-74
2021/12/23 03:12:39;;;;;;;28.63;14.27;;;;;;;-143.84;74.85;45277.56;5110390;28;20200;-74
2021/12/23 03:15:07;;;;;;;21.33;12.98;;;;;;;-143.84;74.41;45268.06;5110470;28;20201;-74
2021/12/23 03:17:35;;;;;;;22.98;12.85;;;;;;;-143.84;74.13;45273.78;5110209;28;20192;-74
2021/12/23 03:20:02;;;;;;;21.65;14.50;;;;;;;-143.84;73.31;45277.56;5110324;28;20189;-74
2021/12/23 03:22:29;;;;;;;23.15;13.10;;;;;;;-143.84;73.07;45273.78;5110168;28;20274;-74
2021/12/23 03:24:58;;;;;;;25.83;13.88;;;;;;;-143.84;72.33;45262.34;5109678;28;20236;-74
2021/12/23 03:27:25;;;;;;;22.00;12.05;;;;;;;-143.84;71.81;45296.63;5110340;28;20246;-74
2021/12/23 03:29:54;;;;;;;18.75;11.48;;;;;;;-143.84;71.33;45258.53;5111296;28;20645;-74
2021/12/23 03:32:21;;;;;;;22.00;12.98;;;;;;;-143.84;71.05;45283.28;5114326;28;20659;-74
2021/12/23 03:34:48;;;;;;;23.02;13.23;;;;;;;-143.84;71.23;45308.03;5114432;28;20197;-74
2021/12/23 03:37:16;;;;;;;23.55;12.15;;;;;;;-143.84;70.43;45287.09;5113847;28;20341;-74
2021/12/23 03:39:43;;;;;;;20.90;13.00;;;;;;;-143.84;69.60;45285.19;5114327;28;20197;-74
2021/12/23 03:42:11;;;;;;;20.08;12.15;;;;;;;-143.84;68.79;45298.53;5114096;28;20204;-74
2021/12/23 03:44:39;;;;;;;20.58;11.25;;;;;;;-143.84;67.61;45313.75;5113759;28;20287;-74
2021/12/23 03:47:06;;;;;;;21.88;10.82;;;;;;;-143.84;67.55;45311.84;5114008;28;20258;-74
2021/12/23 03:49:33;;;;;;;22.02;9.90;;;;;;;-143.84;67.00;45292.81;5113623;28;20273;-74
2021/12/23 03:52:01;;;;;;;17.75;10.40;;;;;;;-143.84;66.43;45269.97;5113808;28;20197;-74
2021/12/23 03:54:28;;;;;;;21.50;11.00;;;;;;;-143.84;65.65;45300.44;5113972;28;20186;-74
2021/12/23 03:56:55;;;;;;;18.80;9.52;;;;;;;-143.84;65.36;45287.09;5114169;28;20561;-74
2021/12/23 03:59:24;;;;;;;19.55;10.60;;;;;;;-143.84;64.91;45269.97;5113685;28;20254;-74
2021/12/23 04:01:51;;;;;;;25.77;10.98;;;;;;;-143.84;64.19;45271.88;5113728;28;20204;-74
2021/12/23 04:04:18;;;;;;;14.77;9.52;;;;;;;-143.84;63.94;45298.53;5113874;28;20208;-74
2021/12/23 04:06:45;;;;;;;17.77;8.70;;;;;;;-143.84;63.38;45279.47;5113905;28;20219;-74
2021/12/23 04:09:12;;;;;;;16.60;9.85;;;;;;;-143.84;63.20;45309.94;5113262;28;20225;-74
2021/12/23 04:11:40;;;;;;;17.98;10.57;;;;;;;-143.84;62.83;45294.72;5113526;28;20625;-74
2021/12/23 04:14:07;;;;;;;11.95;8.70;;;;;;;-143.84;62.58;45258.53;5113270;28;20212;-74
2021/12/23 04:16:36;;;;;;;14.25;9.95;;;;;;;-143.84;62.32;45271.88;5113188;28;20193;-74
2021/12/23 04:19:07;;;;;;;22.27;9.88;;;;;;;-143.84;62.16;45290.91;5095580;28;20205;-74
2021/12/23 04:21:35;;;;;;;19.13;10.02;;;;;;;-143.84;61.58;45308.03;5113154;28;20285;-74
2021/12/23 04:24:03;;;;;;;14.43;7.65;;;;;;;-143.84;60.46;45289.00;5113022;28;20611;-74
2021/12/23 04:26:30;;;;;;;12.57;8.43;;;;;;;-143.84;59.73;45317.56;5113623;28;20197;-74
2021/12/23 04:28:57;;;;;;;15.90;7.38;;;;;;;-143.84;59.55;45283.28;5113258;28;20221;-74
2021/12/23 04:31:25;;;;;;;12.32;7.95;;;;;;;-143.84;59.17;45281.38;5113178;28;20193;-74
2021/12/23 04:33:55;;;;;;;12.32;7.80;;;;;;;-143.84;59.17;45269.97;5113179;28;20205;-74
2021/12/23 04:36:25;;;;;;;14.85;8.10;;;;;;;-143.84;58.70;45298.53;5113022;28;20224;-74
2021/12/23 04:38:52;;;;;;;12.27;7.00;;;;;;;-143.84;58.43;45275.66;5112976;28;20205;-74
2021/12/23 04:41:20;;;;;;;10.10;6.40;;;;;;;-143.84;58.08;45292.81;5112026;28;20197;-74
2021/12/23 04:43:47;;;;;;;13.90;7.82;;;;;;;-143.84;57.43;45252.81;5113154;28;20234;-74
2021/12/23 04:46:14;;;;;;;17.15;8.48;;;;;;;-143.84;57.10;45285.19;5112524;28;20227;-74
2021/12/23 04:48:41;;;;;;;14.27;7.47;;;;;;;-143.84;56.76;45292.81;5112458;28;20720;-74
2021/12/23 04:51:10;;;;;;;12.20;7.13;;;;;;;-143.84;56.38;45306.13;5112711;28;20198;-74
2021/12/23 04:53:37;;;;;;;10.20;6.72;;;;;;;-143.84;56.09;45311.84;5112544;28;20238;-74
2021/12/23 04:56:05;;;;;;;9.55;6.13;;;;;;;-143.84;55.49;45289.00;5111633;28;20197;-72
2021/12/23 04:58:33;;;;;;;10.93;6.18;;;;;;;-143.84;55.26;45275.66;5091965;28;20667;-74
2021/12/23 05:01:00;;;;;;;14.93;7.93;;;;;;;-143.84;55.41;45249.00;5093270;28;20194;-74
2021/12/23 05:03:27;;;;;;;12.48;7.10;;;;;;;-143.84;54.52;45277.56;5092470;28;20191;-75
2021/12/23 05:05:54;;;;;;;7.18;5.38;;;;;;;-143.84;56.37;45271.88;5092629;28;20190;-74
2021/12/23 05:08:23;;;;;;;13.35;6.65;;;;;;;-143.84;54.52;45279.47;5092445;28;20194;-75
2021/12/23 05:10:50;;;;;;;9.45;6.10;;;;;;;-143.84;54.21;45289.00;5074732;28;20229;-74
2021/12/23 05:13:17;;;;;;;7.93;5.72;;;;;;;-143.84;54.31;45252.81;5093119;28;20932;-73
2021/12/23 05:15:45;;;;;;;10.77;6.63;;;;;;;-143.84;53.73;45290.91;5092899;28;21094;-74
2021/12/23 05:18:12;;;;;;;8.20;5.85;;;;;;;-143.84;53.58;45245.19;5107933;28;20239;-74
2021/12/23 05:20:39;;;;;;;10.60;6.65;;;;;;;-143.84;53.63;45300.44;5112121;28;20197;-74
2021/12/23 05:23:06;;;;;;;23.30;12.35;;;;;;;-143.84;53.78;45275.66;5112324;28;20262;-75
2021/12/23 05:25:35;;;;;;;22.17;11.75;;;;;;;-143.84;53.87;45269.97;5112133;28;20185;-74
2021/12/23 05:28:02;;;;;;;19.38;9.10;;;;;;;-143.84;53.98;45315.66;5112349;28;20264;-75
2021/12/23 05:30:30;;;;;;;13.38;7.72;;;;;;;-143.84;53.91;45277.56;5112414;28;20694;-75
2021/12/23 05:32:57;;;;;;;11.55;6.30;;;;;;;-143.84;53.47;45273.78;5112332;28;20781;-74
2021/12/23 05:35:25;;;;;;;19.27;6.85;;;;;;;-143.84;53.56;45269.97;5112648;28;20208;-75
2021/12/23 05:37:53;;;;;;;9.48;6.50;;;;;;;-143.84;53.58;45273.78;5112089;28;20800;-73
2021/12/23 05:40:23;;;;;;;20.67;6.53;;;;;;;-143.84;53.69;45243.31;5111097;28;20212;-74
2021/12/23 05:42:53;;;;;;;16.35;7.05;;;;;;;-143.84;53.80;45285.19;5111660;28;20201;-75
2021/12/23 05:45:20;;;;;;;13.68;7.75;;;;;;;-143.84;53.86;45277.56;5111153;28;20655;-74
2021/12/23 05:47:48;;;;;;;11.15;6.78;;;;;;;-143.84;54.07;45245.19;5110918;28;20197;-74
2021/12/23 05:50:16;;;;;;;12.45;6.07;;;;;;;-143.84;54.26;45273.78;5110175;28;20602;-74
2021/12/23 05:52:44;;;;;;;13.60;6.95;;;;;;;-143.84;54.05;45262.34;5107708;28;20193;-74
2021/12/23 05:55:13;;;;;;;12.70;7.10;;;;;;;-143.84;54.14;45269.97;5110538;28;20189;-74
2021/12/23 05:57:42;;;;;;;7.10;5.45;;;;;;;-143.84;54.38;45283.28;5110551;28;20205;-72
2021/12/23 06:00:14;;;;;;;13.25;6.57;;;;;;;-143.84;54.28;45283.28;5110839;28;20608;-73
2021/12/23 06:02:41;;;;;;;20.23;7.82;;;;;;;-143.84;54.65;45271.88;5110979;28;20201;-73
2021/12/23 06:05:09;;;;;;;13.52;7.30;;;;;;;-143.84;54.14;45269.97;5110844;28;20193;-73
2021/12/23 06:07:36;;;;;;;11.65;8.10;;;;;;;-143.84;54.82;45281.38;5111490;28;20181;-73
2021/12/23 06:10:05;;;;;;;20.30;8.95;;;;;;;-143.84;54.45;45258.53;5111466;28;20266;-73
2021/12/23 06:12:32;;;;;;;16.63;7.90;;;;;;;-143.84;54.76;45266.16;5111156;28;20204;-73
2021/12/23 06:15:00;;;;;;;16.48;7.35;;;;;;;-143.84;54.73;45273.78;5110698;28;20877;-73
2021/12/23 06:17:28;;;;;;;14.10;6.43;;;;;;;-143.84;54.07;45275.66;5108942;28;20201;-74
2021/12/23 06:19:56;;;;;;;12.93;6.63;;;;;;;-143.84;53.82;45283.28;5109298;28;20435;-74
2021/12/23 06:22:23;;;;;;;12.85;7.43;;;;;;;-143.84;53.98;45292.81;5091378;28;20197;-74
2021/12/23 06:24:51;;;;;;;16.15;7.47;;;;;;;-143.84;52.68;45277.56;5109252;28;20228;-73
2021/12/23 06:27:19;;;;;;;12.68;7.40;;;;;;;-143.84;52.75;45266.16;5109096;28;20216;-73
2021/12/23 06:29:47;;;;;;;30.33;9.83;;;;;;;-143.84;53.29;45273.78;5109493;28;20216;-73
2021/12/23 06:32:14;;;;;;;20.10;9.45;;;;;;;-143.84;53.61;45277.56;5109559;28;20477;-73
2021/12/23 06:34:42;;;;;;;16.05;9.45;;;;;;;-143.84;54.28;45292.81;5108975;28;20583;-73
2021/12/23 06:37:10;;;;;;;17.83;9.93;;;;;;;-143.84;55.57;45256.63;5108455;28;20687;-73
2021/12/23 06:39:38;;;;;;;16.20;9.90;;;;;;;-143.84;55.94;45231.88;5108768;28;20258;-74
2021/12/23 06:42:06;;;;;;;20.35;11.48;;;;;;;-143.84;55.61;45283.28;5108767;28;20254;-73
2021/12/23 06:44:33;;;;;;;14.32;8.68;;;;;;;-143.84;55.51;45247.09;5090881;28;20250;-73
2021/12/23 06:47:00;;;;;;;19.75;8.60;;;;;;;-143.84;55.53;45254.72;5109192;28;20197;-73
2021/12/23 06:49:31;;;;;;;13.10;8.10;;;;;;;-143.84;55.36;45250.91;5109837;28;20258;-73
2021/12/23 06:52:00;;;;;;;17.90;10.90;;;;;;;-143.84;55.44;45245.19;5109802;28;20491;-73
2021/12/23 06:54:28;;;;;;;15.80;9.30;;;;;;;-143.84;55.17;45275.66;5109769;28;20443;-73
2021/12/23 06:56:55;;;;;;;14.27;9.47;;;;;;;-143.84;54.51;45269.97;5109746;28;20439;-73
2021/12/23 06:59:22;;;;;;;8.77;7.25;;;;;;;-143.84;53.00;45269.97;5109435;28;21010;-72
2021/12/23 07:01:49;;;;;;;14.40;7.60;;;;;;;-143.84;52.02;45273.78;5109464;28;20204;-74
2021/12/23 07:04:18;;;;;;;12.20;7.77;;;;;;;-143.84;52.05;45279.47;5109496;28;20453;-76
2021/12/23 07:06:57;;;;;;;31.93;16.50;;;;;;;-143.84;53.80;45268.06;5111026;28;20783;-75
2021/12/23 07:09:25;;;;;;;21.10;11.80;;;;;;;-143.84;51.21;45256.63;5111392;28;20438;-76
2021/12/23 07:11:53;;;;;;;24.03;12.90;;;;;;;-143.84;49.70;45233.78;5111309;28;20490;-75
2021/12/23 07:14:20;;;;;;;13.87;8.87;;;;;;;-143.84;48.83;45260.44;5110750;28;20450;-74
2021/12/23 07:16:47;;;;;;;12.03;8.10;;;;;;;-143.84;48.29;45214.72;5109827;28;20431;-74
2021/12/23 07:19:14;;;;;;;12.00;7.17;;;;;;;-143.84;47.39;45231.88;5109844;28;20454;-74
2021/12/23 07:21:41;;;;;;;17.60;7.63;;;;;;;-143.84;46.70;45229.97;5109769;28;20437;-75
2021/12/23 07:24:09;;;;;;;15.37;9.33;;;;;;;-143.84;46.19;45264.25;5109889;28;20483;-74
2021/12/23 07:26:38;;;;;;;39.47;8.77;;;;;;;-143.84;45.96;45229.97;5109695;28;20488;-74
2021/12/23 07:29:05;;;;;;;14.57;8.70;;;;;;;-143.84;45.05;45216.63;5109783;28;21004;-74
2021/12/23 07:31:32;;;;;;;12.63;8.97;;;;;;;-143.84;45.41;45239.50;5110159;28;20482;-75
2021/12/23 07:34:00;;;;;;;23.10;9.47;;;;;;;-143.84;44.30;45229.97;5110191;28;20455;-75
2021/12/23 07:36:28;;;;;;;12.30;8.47;;;;;;;-143.84;44.16;45239.50;5109668;28;20484;-74
2021/12/23 07:38:56;;;;;;;30.03;8.47;;;;;;;-143.84;43.41;45233.78;5109616;28;20532;-75
2021/12/23 07:41:25;;;;;;;17.60;7.57;;;;;;;-143.84;42.66;45212.84;5109792;28;20472;-74
2021/12/23 07:43:59;;;;;;;16.33;8.30;;;;;;;-143.84;42.49;45245.19;5109947;28;20885;-75
2021/12/23 07:46:28;;;;;;;13.20;9.13;;;;;;;-143.84;41.57;45229.97;5110522;28;20512;-73
2021/12/23 07:48:57;;;;;;;10.53;7.47;;;;;;;-143.84;40.50;45226.16;5109745;28;20444;-73
2021/12/23 07:51:25;;;;;;;8.40;6.30;;;;;;;-143.84;40.00;45229.97;5109589;28;20524;-73
2021/12/23 07:53:54;;;;;;;10.97;6.80;;;;;;;-143.84;38.81;45231.88;5109877;28;20622;-73
2021/12/23 07:56:21;;;;;;;12.50;8.60;;;;;;;-143.84;39.14;45184.25;5109930;28;20427;-73
2021/12/23 07:58:49;;;;;;;9.30;6.87;;;;;;;-143.84;38.13;45228.06;5109814;28;21229;-73
2021/12/23 08:01:18;;;;;;;9.10;7.10;;;;;;;-143.84;38.46;45231.88;5110114;28;20426;-73
2021/12/23 08:03:46;;;;;;;12.83;7.13;;;;;;;-143.84;37.66;45203.31;5110270;28;20500;-74
2021/12/23 08:06:14;;;;;;;14.23;8.80;;;;;;;-143.84;37.07;45210.94;5109620;28;20492;-73
2021/12/23 08:08:41;;;;;;;9.33;7.10;;;;;;;-143.84;35.98;45188.06;5105061;28;20448;-73
2021/12/23 08:11:09;;;;;;;9.27;6.37;;;;;;;-143.84;35.93;45184.25;5089238;28;20491;-73
2021/12/23 08:13:37;;;;;;;12.50;8.13;;;;;;;-143.84;35.16;45193.78;5089684;28;20432;-74
2021/12/23 08:16:05;;;;;;;6.27;5.30;;;;;;;-143.84;33.75;45180.47;5089660;28;20431;-74
2021/12/23 08:18:34;;;;;;;10.10;5.80;;;;;;;-143.84;33.19;45191.88;5093046;28;20517;-74
2021/12/23 08:21:01;;;;;;;11.90;8.00;;;;;;;-143.84;34.05;45178.56;5092629;28;20505;-73
2021/12/23 08:23:29;;;;;;;11.17;7.33;;;;;;;-143.84;33.86;45189.97;5092196;28;20506;-74
2021/12/23 08:26:00;;;;;;;12.43;7.10;;;;;;;-143.84;33.39;45201.41;5092683;28;21141;-74
2021/12/23 08:28:27;;;;;;;14.33;7.70;;;;;;;-143.84;32.76;45170.94;5092593;28;20513;-73
2021/12/23 08:30:54;;;;;;;11.67;7.57;;;;;;;-143.84;32.34;45178.56;5092449;28;20574;-74
2021/12/23 08:33:21;;;;;;;13.57;7.87;;;;;;;-143.84;32.76;45178.56;5092433;28;20431;-74
2021/12/23 08:35:50;;;;;;;13.87;8.23;;;;;;;-143.84;32.60;45180.47;5093257;28;20444;-73
2021/12/23 08:38:17;;;;;;;13.60;8.47;;;;;;;-143.84;32.35;45174.75;5092791;28;20436;-74
2021/12/23 08:40:45;;;;;;;33.63;20.50;;;;;;;-143.84;32.35;45167.13;5092616;28;20436;-73
2021/12/23 08:43:13;;;;;;;20.17;13.20;;;;;;;-143.84;32.38;45167.13;5093037;28;20440;-74
2021/12/23 08:45:41;;;;;;;26.63;16.93;;;;;;;-143.84;32.30;45148.09;5092934;28;20534;-74
2021/12/23 08:48:08;;;;;;;24.60;14.50;;;;;;;-143.84;31.66;45159.50;5092135;28;20447;-74
2021/12/23 08:50:35;;;;;;;11.20;8.37;;;;;;;-143.84;32.48;45132.84;5092222;28;20538;-73
2021/12/23 08:53:04;;;;;;;14.07;7.90;;;;;;;-143.84;31.54;45170.94;5092176;28;20988;-73
2021/12/23 08:55:33;;;;;;;8.80;6.30;;;;;;;-143.84;31.01;45159.50;5092037;28;20454;-74
2021/12/23 08:58:04;;;;;;;8.80;7.40;;;;;;;-143.84;30.49;45159.50;5092050;28;20448;-75
2021/12/23 09:00:32;;;;;;;11.63;8.20;;;;;;;-143.84;30.70;45153.81;5092013;28;20456;-74
2021/12/23 09:02:59;;;;;;;11.73;8.30;;;;;;;-143.84;31.21;45169.03;5091557;28;20441;-73
2021/12/23 09:05:26;;;;;;;11.60;8.90;;;;;;;-143.84;31.52;45134.75;5092092;28;20508;-73
2021/12/23 09:07:54;;;;;;;22.43;13.60;;;;;;;-143.84;31.86;45159.50;5091033;28;20432;-74
2021/12/23 09:10:22;;;;;;;10.07;8.00;;;;;;;-143.84;31.23;45159.50;5091190;28;20449;-73
2021/12/23 09:12:50;;;;;;;19.73;10.87;;;;;;;-143.84;31.26;45155.69;5090889;28;20494;-74
2021/12/23 09:15:18;;;;;;;33.97;16.30;;;;;;;-143.84;32.28;45165.22;5091172;28;20514;-74
2021/12/23 09:17:46;;;;;;;23.47;15.07;;;;;;;-143.84;33.28;45138.56;5091953;28;20510;-74
2021/12/23 09:20:15;;;;;;;22.00;15.40;;;;;;;-143.84;33.14;45150.00;5101473;28;20482;-73
2021/12/23 09:22:44;;;;;;;29.77;14.50;;;;;;;-143.84;33.02;45144.28;5110776;28;20443;-74
2021/12/23 09:25:19;;;;;;;27.43;15.77;;;;;;;-143.84;32.90;45189.97;5109894;28;20482;-72
2021/12/23 09:27:58;;;;;;;17.07;12.87;;;;;;;-143.84;33.56;45138.56;5106951;28;21027;-74
2021/12/23 09:33:12;;;;;;;20.30;13.90;;;;;;;-143.84;33.20;45161.41;5108540;28;20461;-74
2021/12/23 09:35:39;;;;;;;17.97;11.90;;;;;;;-143.84;33.55;45146.19;5101629;28;20792;-74
2021/12/23 09:38:07;;;;;;;28.10;15.10;;;;;;;-143.84;32.60;45180.47;5109956;28;21059;-74
2021/12/23 09:40:36;;;;;;;24.10;13.87;;;;;;;-143.84;33.42;45155.69;5112343;28;20517;-76
2021/12/23 09:43:07;;;;;;;24.87;13.03;;;;;;;-143.84;33.85;45170.94;5113754;28;20452;-71
2021/12/23 09:45:35;;;;;;;23.27;13.70;;;;;;;-143.84;33.88;45172.84;5112192;28;20868;-72
2021/12/23 09:48:03;;;;;;;32.87;18.63;;;;;;;-143.84;33.77;45148.09;5112939;28;20506;-73
2021/12/23 09:50:36;;;;;;;17.77;12.23;;;;;;;-143.84;32.71;45172.84;5112773;28;20453;-79
2021/12/23 09:53:05;;;;;;;29.40;15.63;;;;;;;-143.84;33.51;45153.81;5113675;28;20823;-74
2021/12/23 09:55:35;;;;;;;26.00;15.90;;;;;;;-143.84;33.22;45148.09;5113415;28;20519;-74
2021/12/23 09:58:05;;;;;;;22.93;12.33;;;;;;;-143.84;33.11;45163.31;5113195;28;20932;-74
2021/12/23 10:00:35;;;;;;;26.73;12.90;;;;;;;-143.84;32.91;45155.69;5112050;28;20449;-72
2021/12/23 10:03:02;;;;;;;21.60;14.27;;;;;;;-143.84;32.32;45140.47;5109753;28;20457;-72
2021/12/23 10:05:31;;;;;;;19.30;13.47;;;;;;;-143.84;31.64;45144.28;5109917;28;20530;-72
2021/12/23 10:07:59;;;;;;;23.93;13.97;;;;;;;-143.84;31.27;45148.09;5109888;28;20453;-72
2021/12/23 10:10:33;;;;;;;18.10;12.90;;;;;;;-143.84;32.05;45148.09;5109419;28;21262;-72
2021/12/23 10:38:21;;;;;;;13.40;9.37;;;;;;;-143.84;30.92;45178.56;5102756;28;20984;-73
2021/12/23 10:40:51;;;;;;;14.73;11.00;;;;;;;-143.84;31.59;45146.19;5108315;28;20453;-74
2021/12/23 10:43:28;;;;;;;20.20;11.03;;;;;;;-143.84;29.84;45148.09;5110110;28;20436;-74
2021/12/23 10:45:58;;;;;;;11.97;7.13;;;;;;;-143.84;30.32;45172.84;5108794;28;20467;-70
2021/12/23 10:48:29;;;;;;;14.83;7.30;;;;;;;-143.84;29.64;45178.56;5108694;28;20541;-70
2021/12/23 10:51:02;;;;;;;20.97;11.70;;;;;;;-143.84;30.06;45155.69;5109052;28;20503;-70
2021/12/23 10:59:16;;;;;;;21.67;8.07;;;;;;;-143.84;30.07;45157.59;5106635;28;20475;-72
2021/12/23 11:02:13;;;;;;;11.47;6.40;;;;;;;-143.84;30.55;45148.09;5107319;28;20813;-73
2021/12/23 11:05:10;;;;;;;10.27;7.90;;;;;;;-143.84;30.15;45170.94;5107832;28;20456;-71
2021/12/23 11:07:54;;;;;;;17.20;12.43;;;;;;;-143.84;30.01;45150.00;5107962;28;21266;-71
2021/12/23 11:10:39;;;;;;;9.00;6.63;;;;;;;-143.84;30.30;45157.59;5107087;28;20444;-70
2021/12/23 11:27:39;;;;;;;6.53;5.07;;;;;;;-143.84;29.14;45163.31;5108251;28;20998;-72
2021/12/23 11:36:03;;;;;;;6.50;5.43;;;;;;;-143.84;29.04;45167.13;5107321;28;20426;-70
2021/12/23 11:38:39;;;;;;;13.43;6.80;;;;;;;-143.84;29.40;45153.81;5105708;28;20508;-70
2021/12/23 11:41:19;;;;;;;11.00;6.80;;;;;;;-143.84;29.58;45186.16;5106650;28;20899;-70
2021/12/23 11:43:49;;;;;;;11.00;7.90;;;;;;;-143.84;29.42;45163.31;5108155;28;20504;-70
2021/12/23 11:46:21;;;;;;;14.40;8.77;;;;;;;-143.84;30.39;45167.13;5108208;28;20456;-70
2021/12/23 11:48:52;;;;;;;21.93;9.40;;;;;;;-143.84;30.10;45172.84;5108456;28;20537;-70
2021/12/23 11:51:28;;;;;;;9.73;7.90;;;;;;;-143.84;30.47;45172.84;5107079;28;21072;-70
2021/12/23 11:53:58;;;;;;;14.60;8.10;;;;;;;-143.84;30.94;45169.03;5111493;28;20458;-70
2021/12/23 11:56:26;;;;;;;9.97;7.50;;;;;;;-143.84;30.59;45188.06;5112011;28;20460;-70
2021/12/23 11:58:57;;;;;;;10.33;7.33;;;;;;;-143.84;30.98;45163.31;5112113;28;20447;-70
2021/12/23 12:01:28;;;;;;;12.67;8.63;;;;;;;-143.84;30.93;45165.22;5111642;28;20976;-70
2021/12/23 12:04:01;;;;;;;10.77;8.37;;;;;;;-143.84;31.20;45170.94;5111835;28;20442;-70
2021/12/23 12:06:31;;;;;;;15.53;9.37;;;;;;;-143.84;31.26;45169.03;5111758;28;21042;-70
2021/12/23 12:09:14;;;;;;;29.20;13.20;;;;;;;-143.84;31.55;45127.13;5112083;28;20454;-70
2021/12/23 12:11:48;;;;;;;15.50;9.33;;;;;;;-143.84;31.12;45184.25;5105678;28;20899;-72